Time;durP1;ratioP1;P1;durP2;ratioP2;P2;SDS_P1;SDS_P2;PMS_P1;PMS_P2;Temp;Humidity;BMP_temperature;BMP_pressure;BME280_temperature;BME280_humidity;BME280_pressure;Samples;Min_cycle;Max_cycle;Signal;HPM_P1;HPM_P2
2022/07/20 00:02:04;;;;;;;1.60;1.20;;;;;;;21.61;68.45;101561.66;4976424;28;102160;-67
2022/07/20 00:04:31;;;;;;;2.05;1.02;;;;;;;21.61;67.92;101556.13;4977731;28;102302;-67
2022/07/20 00:06:57;;;;;;;0.98;0.98;;;;;;;21.62;68.51;101568.00;4976507;28;103881;-67
2022/07/20 00:12:09;;;;;;;1.50;1.23;;;;;;;21.61;68.53;101561.66;4975282;28;102576;-67
2022/07/20 00:14:40;;;;;;;1.20;1.10;;;;;;;21.60;68.33;101554.47;4963747;28;102755;-67
2022/07/20 00:17:06;;;;;;;1.75;0.90;;;;;;;21.60;68.42;101554.47;4975427;28;103900;-66
2022/07/20 00:19:33;;;;;;;1.50;1.30;;;;;;;21.61;68.20;101555.31;4977382;28;102220;-66
2022/07/20 00:22:00;;;;;;;1.33;1.10;;;;;;;21.61;68.36;101545.03;4977034;28;102311;-66
2022/07/20 00:24:26;;;;;;;1.20;1.10;;;;;;;21.60;68.14;101546.16;4977691;28;102162;-66
2022/07/20 00:26:53;;;;;;;1.10;1.05;;;;;;;21.60;68.35;101551.69;4976360;28;104033;-66
2022/07/20 00:29:20;;;;;;;1.42;1.33;;;;;;;21.61;68.31;101560.84;4973691;28;102180;-66
2022/07/20 00:31:48;;;;;;;1.20;1.10;;;;;;;21.61;68.66;101550.56;4967570;28;102180;-66
2022/07/20 00:34:15;;;;;;;1.20;1.10;;;;;;;21.61;68.53;101544.22;4978364;28;102254;-67
2022/07/20 00:36:41;;;;;;;2.03;1.10;;;;;;;21.60;68.61;101543.38;4976382;28;103848;-67
2022/07/20 00:39:08;;;;;;;1.23;0.93;;;;;;;21.63;68.36;101541.91;4977562;28;102249;-67
2022/07/20 00:41:35;;;;;;;1.38;1.27;;;;;;;21.62;68.35;101540.31;4975973;28;102435;-66
2022/07/20 00:44:05;;;;;;;1.65;1.23;;;;;;;21.61;68.56;101533.94;4978469;28;102438;-66
2022/07/20 00:46:34;;;;;;;1.75;1.20;;;;;;;21.61;68.42;101528.41;4975605;28;104149;-66
2022/07/20 00:49:04;;;;;;;1.73;1.00;;;;;;;21.61;68.34;101525.66;4974672;28;103390;-66
2022/07/20 00:51:30;;;;;;;1.63;1.10;;;;;;;21.62;68.59;101534.75;4976259;28;102177;-67
2022/07/20 00:53:58;;;;;;;1.33;1.00;;;;;;;21.60;68.31;101529.53;4978312;28;102244;-67
2022/07/20 00:56:25;;;;;;;1.27;1.00;;;;;;;21.61;68.53;101522.88;4976734;28;104289;-67
2022/07/20 00:58:52;;;;;;;1.73;1.25;;;;;;;21.61;68.59;101517.34;4974392;28;102327;-67
2022/07/20 01:01:18;;;;;;;1.40;1.00;;;;;;;21.61;68.38;101522.88;4967948;28;102211;-66
2022/07/20 01:03:45;;;;;;;1.30;1.20;;;;;;;21.61;68.59;101525.66;4971822;28;102650;-66
2022/07/20 01:06:13;;;;;;;2.00;1.40;;;;;;;21.62;68.45;101523.69;4957365;28;104036;-67
2022/07/20 01:08:40;;;;;;;1.47;1.13;;;;;;;21.62;68.50;101520.91;4957409;28;102465;-67
2022/07/20 01:11:08;;;;;;;2.90;1.10;;;;;;;21.61;68.81;101522.88;4973647;28;102455;-67
2022/07/20 01:13:34;;;;;;;1.00;1.00;;;;;;;21.61;68.28;101514.56;4977999;28;102336;-67
2022/07/20 01:16:02;;;;;;;1.60;1.10;;;;;;;21.62;68.47;101510.63;4976415;28;103960;-68
2022/07/20 01:18:29;;;;;;;1.00;0.90;;;;;;;21.61;68.78;101509.03;4977078;28;102844;-66
2022/07/20 01:21:01;;;;;;;1.77;1.30;;;;;;;21.62;68.50;101512.59;4975021;28;102407;-67
2022/07/20 01:23:28;;;;;;;1.20;1.10;;;;;;;21.61;68.59;101511.78;4978027;28;102058;-66
2022/07/20 01:25:54;;;;;;;1.52;1.10;;;;;;;21.62;68.38;101507.88;4974680;28;104113;-67
2022/07/20 01:28:21;;;;;;;1.27;1.17;;;;;;;21.62;68.46;101501.53;4979620;28;102276;-67
2022/07/20 01:30:47;;;;;;;1.40;1.30;;;;;;;21.61;68.48;101499.91;4979043;28;102270;-66
2022/07/20 01:33:14;;;;;;;3.03;1.10;;;;;;;21.62;68.60;101501.53;4978530;28;102238;-67
2022/07/20 01:35:40;;;;;;;9.38;1.45;;;;;;;21.61;68.45;101497.94;4979641;28;103929;-67
2022/07/20 01:38:08;;;;;;;1.00;0.90;;;;;;;21.60;68.59;101501.84;4969717;28;102214;-66
2022/07/20 01:40:35;;;;;;;7.23;1.10;;;;;;;21.61;68.52;101499.91;4967631;28;103562;-67
2022/07/20 01:43:02;;;;;;;1.20;1.10;;;;;;;21.61;68.77;101500.72;4980372;28;102365;-66
2022/07/20 01:45:28;;;;;;;0.88;0.82;;;;;;;21.61;68.51;101502.66;4979429;28;104223;-67
2022/07/20 01:47:55;;;;;;;1.48;1.35;;;;;;;21.60;68.49;101501.84;4980126;28;102202;-67
2022/07/20 01:50:21;;;;;;;1.23;1.13;;;;;;;21.60;68.73;101501.84;4978605;28;102353;-66
2022/07/20 01:52:48;;;;;;;1.48;1.10;;;;;;;21.59;68.55;101498.25;4979463;28;102426;-67
2022/07/20 01:55:16;;;;;;;1.17;1.00;;;;;;;21.59;68.64;101505.75;4978866;28;104019;-66
2022/07/20 01:57:43;;;;;;;1.23;1.00;;;;;;;21.58;68.62;101504.13;4980331;28;102473;-67
2022/07/20 02:00:12;;;;;;;1.85;1.10;;;;;;;21.61;68.71;101508.22;4978686;28;102272;-66
2022/07/20 02:02:40;;;;;;;1.70;1.10;;;;;;;21.58;68.65;101510.47;4979850;28;102253;-67
2022/07/20 02:05:08;;;;;;;15.05;1.52;;;;;;;21.59;68.48;101511.28;4959081;28;103927;-66
2022/07/20 02:07:35;;;;;;;;;;;;;;;21.58;68.74;101498.59;4960755;28;102024;-67
2022/07/20 02:10:03;;;;;;;17.70;1.58;;;;;;;21.58;68.75;101501.34;4960152;28;102000;-66
2022/07/20 02:12:33;;;;;;;1.17;1.08;;;;;;;21.57;68.83;101505.28;4965938;28;102333;-66
2022/07/20 02:14:59;;;;;;;1.23;0.82;;;;;;;21.57;68.79;101502.50;4978999;28;104025;-66
2022/07/20 02:17:26;;;;;;;1.30;1.20;;;;;;;21.56;68.55;101504.44;4979245;28;101824;-66
2022/07/20 02:19:53;;;;;;;1.17;1.13;;;;;;;21.56;68.63;101503.63;4978318;28;102124;-66
2022/07/20 02:22:19;;;;;;;1.17;0.93;;;;;;;21.56;68.74;101504.44;4974021;28;102459;-66
2022/07/20 02:24:46;;;;;;;1.05;0.95;;;;;;;21.56;68.63;101509.16;4973978;28;103843;-67
2022/07/20 02:27:13;;;;;;;1.08;1.05;;;;;;;21.56;68.67;101503.63;4965292;28;102467;-66
2022/07/20 02:29:41;;;;;;;1.40;1.25;;;;;;;21.56;68.74;101509.97;4967902;28;102208;-67
2022/07/20 02:32:08;;;;;;;1.05;1.05;;;;;;;21.57;68.63;101516.38;4980221;28;102246;-66
2022/07/20 02:34:34;;;;;;;1.00;0.90;;;;;;;21.56;68.85;101503.63;4978483;28;103887;-66
2022/07/20 02:37:01;;;;;;;1.10;0.98;;;;;;;21.56;68.62;101509.16;4975918;28;102472;-65
2022/07/20 02:39:27;;;;;;;4.53;0.90;;;;;;;21.54;68.56;101501.19;4977033;28;102463;-66
2022/07/20 02:41:54;;;;;;;1.55;1.13;;;;;;;21.55;68.59;101511.13;4978849;28;102132;-66
2022/07/20 02:44:20;;;;;;;1.20;1.10;;;;;;;21.56;68.67;101509.16;4978195;28;104142;-66
2022/07/20 02:46:48;;;;;;;1.92;1.02;;;;;;;21.55;68.88;101519.44;4978521;28;101831;-66
2022/07/20 02:49:14;;;;;;;1.08;0.98;;;;;;;21.55;68.63;101513.09;4976837;28;102098;-65
2022/07/20 02:51:41;;;;;;;1.25;1.00;;;;;;;21.54;68.88;101511.47;4979904;28;102143;-67
2022/07/20 02:54:08;;;;;;;1.10;1.00;;;;;;;21.55;69.03;101510.31;4977942;28;108109;-66
2022/07/20 02:56:35;;;;;;;2.55;1.27;;;;;;;21.55;68.60;101510.31;4978908;28;102275;-66
2022/07/20 02:59:01;;;;;;;1.35;1.25;;;;;;;21.56;68.63;101509.16;4976515;28;102472;-66
2022/07/20 03:01:28;;;;;;;2.28;1.08;;;;;;;21.56;68.94;101506.41;4975498;28;102332;-66
2022/07/20 03:03:55;;;;;;;1.42;1.33;;;;;;;21.55;68.49;101505.59;4963196;28;103924;-65
2022/07/20 03:06:27;;;;;;;1.10;1.10;;;;;;;21.55;68.35;101507.56;4978376;28;102385;-66
2022/07/20 03:08:54;;;;;;;1.27;1.20;;;;;;;21.57;68.52;101505.28;4977263;28;102180;-66
2022/07/20 03:11:22;;;;;;;1.30;1.13;;;;;;;21.56;68.75;101503.63;4979299;28;102195;-66
2022/07/20 03:13:49;;;;;;;1.63;1.10;;;;;;;21.57;68.77;101513.59;4977163;28;104039;-66
2022/07/20 03:16:15;;;;;;;2.00;1.27;;;;;;;21.57;68.60;101517.16;4978164;28;102340;-66
2022/07/20 03:18:42;;;;;;;1.23;1.10;;;;;;;21.57;68.75;101513.59;4976476;28;102093;-66
2022/07/20 03:21:10;;;;;;;1.60;1.10;;;;;;;21.58;68.70;101518.78;4978860;28;102057;-66
2022/07/20 03:23:38;;;;;;;1.55;1.20;;;;;;;21.60;68.90;101521.22;4977261;28;104410;-66
2022/07/20 03:26:04;;;;;;;1.38;1.27;;;;;;;21.59;68.59;101514.88;4974077;28;102206;-66
2022/07/20 03:28:32;;;;;;;0.90;0.90;;;;;;;21.61;68.75;101514.56;4961233;28;102129;-66
2022/07/20 03:30:59;;;;;;;2.10;1.30;;;;;;;21.61;68.57;101517.34;4979344;28;102205;-66
2022/07/20 03:33:26;;;;;;;1.73;1.20;;;;;;;21.62;68.67;101521.72;4976469;28;103909;-67
2022/07/20 03:35:52;;;;;;;1.30;1.20;;;;;;;21.62;68.79;101518.94;4977687;28;102151;-66
2022/07/20 03:38:20;;;;;;;1.88;1.10;;;;;;;21.62;68.78;101518.16;4977011;28;102496;-66
2022/07/20 03:40:47;;;;;;;1.02;1.02;;;;;;;21.62;68.89;101515.38;4978992;28;102791;-65
2022/07/20 03:43:13;;;;;;;1.40;1.30;;;;;;;21.62;68.84;101507.88;4977443;28;104186;-67
2022/07/20 03:45:40;;;;;;;2.22;1.02;;;;;;;21.63;68.99;101515.03;4976462;28;102209;-66
2022/07/20 03:48:06;;;;;;;1.27;1.17;;;;;;;21.63;68.94;101515.03;4977535;28;102343;-66
2022/07/20 03:50:33;;;;;;;1.40;1.23;;;;;;;21.63;68.79;101515.03;4977479;28;102986;-66
2022/07/20 03:53:00;;;;;;;1.55;1.10;;;;;;;21.63;69.04;101512.25;4976307;28;103844;-67
2022/07/20 03:55:28;;;;;;;1.17;1.08;;;;;;;21.64;68.84;101519.44;4978090;28;101994;-66
2022/07/20 03:57:55;;;;;;;1.57;1.10;;;;;;;21.64;68.83;101516.69;4976407;28;102177;-66
2022/07/20 04:00:21;;;;;;;1.50;1.40;;;;;;;21.64;68.83;101525.00;4977673;28;102632;-66
2022/07/20 04:02:48;;;;;;;1.60;1.30;;;;;;;21.65;68.88;101517.50;4976137;28;103894;-66
2022/07/20 04:05:14;;;;;;;1.30;1.20;;;;;;;21.65;68.99;101523.84;4976046;28;102204;-65
2022/07/20 04:07:41;;;;;;;2.55;1.38;;;;;;;21.65;68.73;101529.38;4976799;28;102001;-66
2022/07/20 04:10:08;;;;;;;1.40;1.30;;;;;;;21.67;68.78;101529.84;4975348;28;102126;-66
2022/07/20 04:12:39;;;;;;;1.30;1.20;;;;;;;21.68;68.69;101531.50;4976460;28;104000;-66
2022/07/20 04:15:06;;;;;;;;;;;;;;;21.67;68.90;101526.28;4976236;28;102448;-66
2022/07/20 04:17:33;;;;;;;2.45;1.50;;;;;;;21.67;68.67;101527.09;4976846;28;102164;-67
2022/07/20 04:20:04;;;;;;;1.95;1.50;;;;;;;21.69;68.87;101529.53;4977488;28;103621;-66
2022/07/20 04:22:31;;;;;;;1.83;1.30;;;;;;;21.68;68.86;101534.28;4976226;28;103926;-67
2022/07/20 04:24:57;;;;;;;1.48;1.38;;;;;;;21.70;68.66;101536.72;4976800;28;102129;-66
2022/07/20 04:27:24;;;;;;;1.55;1.20;;;;;;;21.69;68.80;101544.22;4974205;28;102143;-66
2022/07/20 04:29:52;;;;;;;1.50;1.40;;;;;;;21.71;68.58;101532.78;4977853;28;102271;-66
2022/07/20 04:32:19;;;;;;;3.15;1.48;;;;;;;21.71;68.82;101533.63;4974808;28;104491;-67
2022/07/20 04:34:45;;;;;;;1.60;1.50;;;;;;;21.70;68.98;101536.72;4958610;28;102174;-66
2022/07/20 04:37:13;;;;;;;1.45;1.35;;;;;;;21.72;68.61;101534.44;4976371;28;104405;-66
2022/07/20 04:39:40;;;;;;;1.60;1.50;;;;;;;21.70;68.58;101531.16;4977149;28;102225;-66
2022/07/20 04:42:07;;;;;;;1.70;1.60;;;;;;;21.70;68.78;101534.75;4976630;28;103979;-66
2022/07/20 04:44:33;;;;;;;2.53;1.63;;;;;;;21.70;68.51;101531.97;4977179;28;102335;-65
2022/07/20 04:47:01;;;;;;;1.85;1.60;;;;;;;21.72;68.55;101535.25;4971431;28;102063;-66
2022/07/20 04:49:28;;;;;;;1.70;1.60;;;;;;;21.71;68.76;101532.78;4978078;28;102530;-66
2022/07/20 04:51:55;;;;;;;2.33;2.10;;;;;;;21.71;68.68;101533.63;4974528;28;103973;-66
2022/07/20 04:54:22;;;;;;;3.97;1.80;;;;;;;21.72;68.51;101535.25;4976474;28;102140;-66
2022/07/20 04:56:49;;;;;;;2.67;1.88;;;;;;;21.74;68.54;101538.50;4975503;28;102355;-66
2022/07/20 04:59:16;;;;;;;1.70;1.60;;;;;;;21.73;68.60;101534.09;4977746;28;102229;-66
2022/07/20 05:01:42;;;;;;;2.22;2.05;;;;;;;21.75;68.66;101536.56;4969083;28;103951;-66
2022/07/20 05:04:11;;;;;;;2.08;1.77;;;;;;;21.75;68.81;101540.13;4971599;28;102448;-66
2022/07/20 05:06:37;;;;;;;1.90;1.80;;;;;;;21.77;68.59;101542.56;4975559;28;102311;-66
2022/07/20 05:09:07;;;;;;;2.28;2.08;;;;;;;21.77;68.69;101550.88;4977993;28;102537;-65
2022/07/20 05:11:33;;;;;;;2.28;1.95;;;;;;;21.79;68.57;101545.84;4974852;28;104114;-66
2022/07/20 05:14:01;;;;;;;2.37;2.17;;;;;;;21.80;68.39;101545.50;4976164;28;102313;-66
2022/07/20 05:16:29;;;;;;;2.33;1.88;;;;;;;21.81;68.63;101549.88;4975473;28;102378;-64
2022/07/20 05:18:56;;;;;;;1.90;1.80;;;;;;;21.82;68.70;101553.50;4977367;28;102945;-65
2022/07/20 05:21:23;;;;;;;2.03;1.83;;;;;;;21.83;68.55;101547.63;4975545;28;103761;-66
2022/07/20 05:23:50;;;;;;;2.63;1.57;;;;;;;21.86;68.40;101546.16;4975545;28;102007;-65
2022/07/20 05:26:17;;;;;;;3.10;1.83;;;;;;;21.88;68.39;101559.66;4971838;28;102122;-65
2022/07/20 05:28:43;;;;;;;3.08;1.70;;;;;;;21.88;68.36;101554.13;4977469;28;102205;-65
2022/07/20 05:31:13;;;;;;;2.38;2.17;;;;;;;21.88;68.41;101556.91;4974131;28;107768;-66
2022/07/20 05:33:40;;;;;;;2.50;2.30;;;;;;;21.90;68.21;101557.41;4976548;28;101880;-65
2022/07/20 05:36:08;;;;;;;2.80;2.10;;;;;;;21.93;68.26;101562.28;4974686;28;102450;-65
2022/07/20 05:38:36;;;;;;;2.20;2.03;;;;;;;21.93;68.42;101556.75;4976448;28;102335;-64
2022/07/20 05:41:03;;;;;;;2.35;2.15;;;;;;;21.97;67.88;101560.50;4976016;28;103926;-66
2022/07/20 05:43:30;;;;;;;2.42;2.22;;;;;;;21.98;68.04;101553.78;4976412;28;102138;-66
2022/07/20 05:45:57;;;;;;;3.72;2.50;;;;;;;22.00;67.33;101554.28;4972461;28;102456;-65
2022/07/20 05:48:23;;;;;;;3.47;3.00;;;;;;;22.00;67.74;101559.84;4977556;28;102626;-65
2022/07/20 05:50:52;;;;;;;3.65;3.00;;;;;;;22.00;67.83;101555.09;4975393;28;104083;-65
2022/07/20 05:53:19;;;;;;;6.82;3.35;;;;;;;22.04;66.71;101552.50;4973772;28;102296;-65
2022/07/20 05:55:48;;;;;;;4.45;3.03;;;;;;;22.04;67.50;101546.94;4967669;28;102309;-66
2022/07/20 05:58:14;;;;;;;4.23;3.73;;;;;;;22.06;66.66;101547.41;4976576;28;102306;-66
2022/07/20 06:00:41;;;;;;;5.90;3.80;;;;;;;22.07;65.17;101543.53;4974165;28;104191;-66
2022/07/20 06:03:08;;;;;;;8.65;5.10;;;;;;;22.27;63.89;101545.59;4970796;28;102369;-66
2022/07/20 06:05:35;;;;;;;10.73;4.30;;;;;;;22.16;65.37;101541.56;4968957;28;104484;-66
2022/07/20 06:08:03;;;;;;;5.97;4.40;;;;;;;22.15;65.23;101537.16;4971924;28;104641;-66
2022/07/20 06:10:31;;;;;;;7.13;4.35;;;;;;;22.14;66.70;101535.50;4970743;28;104109;-66
2022/07/20 06:13:00;;;;;;;4.55;3.65;;;;;;;22.14;66.52;101529.13;4972602;28;102314;-65
2022/07/20 06:15:26;;;;;;;7.55;4.07;;;;;;;22.16;65.72;101532.44;4977576;28;102335;-65
2022/07/20 06:17:54;;;;;;;6.43;4.10;;;;;;;22.17;65.19;101534.88;4969567;28;102150;-66
2022/07/20 06:20:23;;;;;;;8.75;4.22;;;;;;;22.18;64.99;101532.91;4970580;28;103777;-67
2022/07/20 06:22:50;;;;;;;5.77;4.27;;;;;;;22.18;66.24;101533.75;4975397;28;102250;-66
2022/07/20 06:25:18;;;;;;;5.88;3.92;;;;;;;22.18;66.26;101525.41;4974033;28;102381;-66
2022/07/20 06:27:45;;;;;;;5.72;4.00;;;;;;;22.18;66.90;101519.88;4973481;28;102504;-66
2022/07/20 06:30:14;;;;;;;8.52;3.97;;;;;;;22.18;66.06;101517.09;4966817;28;103975;-66
2022/07/20 06:32:41;;;;;;;7.30;4.35;;;;;;;22.19;65.31;101527.03;4967573;28;102343;-66
2022/07/20 06:35:09;;;;;;;7.63;3.75;;;;;;;22.16;66.85;101522.16;4967900;28;103682;-66
2022/07/20 06:37:36;;;;;;;4.70;3.47;;;;;;;22.18;66.42;101519.88;4971142;28;102540;-67
2022/07/20 06:40:04;;;;;;;6.35;3.95;;;;;;;22.19;65.92;101521.50;4974947;28;103940;-67
2022/07/20 06:42:31;;;;;;;5.30;3.97;;;;;;;22.19;66.70;101517.91;4975537;28;102176;-66
2022/07/20 06:44:58;;;;;;;5.30;3.78;;;;;;;22.18;67.43;101514.34;4973846;28;102468;-66
2022/07/20 06:47:26;;;;;;;6.55;4.03;;;;;;;22.20;66.03;101525.88;4973624;28;103261;-67
2022/07/20 06:49:53;;;;;;;5.80;4.28;;;;;;;22.20;66.46;101523.13;4968906;28;103893;-67
2022/07/20 06:52:19;;;;;;;4.18;3.70;;;;;;;22.20;66.78;101523.13;4959396;28;102147;-67
2022/07/20 06:54:46;;;;;;;5.18;3.83;;;;;;;22.21;66.62;101519.19;4975204;28;102520;-66
2022/07/20 06:57:13;;;;;;;6.43;4.07;;;;;;;22.22;66.48;101526.38;4979244;28;102242;-66
2022/07/20 06:59:40;;;;;;;6.32;3.88;;;;;;;22.22;65.71;101520.03;4977256;28;103947;-66
2022/07/20 07:02:08;;;;;;;4.97;3.65;;;;;;;22.24;65.66;101526.03;4975146;28;102533;-67
2022/07/20 07:04:36;;;;;;;5.60;3.97;;;;;;;22.26;65.35;101521.00;4970287;28;101993;-67
2022/07/20 07:07:02;;;;;;;5.73;4.03;;;;;;;22.26;65.75;101521.81;4967767;28;102259;-67
2022/07/20 07:09:29;;;;;;;6.00;3.70;;;;;;;22.26;65.38;101516.25;4972364;28;104255;-67
2022/07/20 07:11:56;;;;;;;4.10;3.40;;;;;;;22.27;65.49;101512.34;4970248;28;102296;-66
2022/07/20 07:14:23;;;;;;;3.97;3.58;;;;;;;22.26;65.49;101507.94;4973253;28;101983;-67
2022/07/20 07:16:49;;;;;;;4.63;3.75;;;;;;;22.25;66.52;101509.09;4973884;28;102254;-67
2022/07/20 07:19:20;;;;;;;4.60;3.50;;;;;;;22.27;65.74;101512.34;4977566;28;104051;-66
2022/07/20 07:21:49;;;;;;;6.80;3.72;;;;;;;22.26;65.45;101505.16;4971249;28;102881;-67
2022/07/20 07:24:16;;;;;;;5.78;3.95;;;;;;;22.27;65.55;101498.47;4972972;28;102831;-67
2022/07/20 07:26:42;;;;;;;5.75;3.85;;;;;;;22.29;65.11;101496.19;4975984;28;103050;-67
2022/07/20 07:29:09;;;;;;;4.45;3.90;;;;;;;22.27;65.68;101494.88;4975639;28;103984;-67
2022/07/20 07:31:36;;;;;;;4.80;4.00;;;;;;;22.28;65.99;101491.75;4976057;28;102257;-67
2022/07/20 07:34:02;;;;;;;4.40;3.80;;;;;;;22.29;65.24;101498.16;4976808;28;101993;-67
2022/07/20 07:36:29;;;;;;;5.38;4.38;;;;;;;22.30;64.72;101495.03;4978243;28;102165;-67
2022/07/20 07:38:57;;;;;;;4.07;3.67;;;;;;;22.30;65.36;101500.56;4977341;28;104032;-66
2022/07/20 07:41:24;;;;;;;4.93;4.00;;;;;;;22.31;65.97;101495.84;4977961;28;102094;-68
2022/07/20 07:43:51;;;;;;;5.32;4.22;;;;;;;22.31;65.32;101493.06;4977162;28;102246;-67
2022/07/20 07:46:18;;;;;;;3.70;3.33;;;;;;;22.31;65.12;101493.06;4975296;28;102670;-66
2022/07/20 07:48:45;;;;;;;5.80;4.22;;;;;;;22.34;64.43;101477.75;4975152;28;103562;-67
2022/07/20 07:51:11;;;;;;;3.83;3.50;;;;;;;22.34;64.85;101483.28;4975059;28;102235;-67
2022/07/20 07:53:38;;;;;;;4.20;3.80;;;;;;;22.33;64.76;101481.66;4976852;28;102418;-67
2022/07/20 07:56:06;;;;;;;5.90;3.70;;;;;;;22.33;64.72;101488.03;4977847;28;102350;-68
2022/07/20 07:58:32;;;;;;;4.50;3.97;;;;;;;22.32;65.79;101480.81;4976438;28;104011;-67
2022/07/20 08:00:59;;;;;;;5.63;3.88;;;;;;;22.33;64.82;101481.66;4977907;28;101844;-67
2022/07/20 08:03:25;;;;;;;3.88;3.45;;;;;;;22.33;65.76;101470.56;4977171;28;102052;-67
2022/07/20 08:05:53;;;;;;;3.90;3.50;;;;;;;22.33;65.66;101476.13;4978348;28;102278;-66
2022/07/20 08:08:20;;;;;;;3.60;3.30;;;;;;;22.34;65.47;101469.41;4975966;28;103840;-67
2022/07/20 08:10:46;;;;;;;4.45;4.05;;;;;;;22.33;65.47;101468.59;4977340;28;102060;-67
2022/07/20 08:13:54;;;;;;;4.05;3.65;;;;;;;22.34;65.44;101463.88;4975547;28;101925;-67
2022/07/20 08:16:22;;;;;;;6.45;3.70;;;;;;;22.33;65.24;101459.47;4976978;28;102258;-67
2022/07/20 08:18:51;;;;;;;4.03;3.35;;;;;;;22.35;64.78;101457.16;4975675;28;104139;-67
2022/07/20 08:21:19;;;;;;;4.18;3.78;;;;;;;22.35;66.06;101452.44;4977540;28;102304;-67
2022/07/20 08:23:47;;;;;;;3.80;3.50;;;;;;;22.34;65.76;101444.47;4974116;28;102316;-66
2022/07/20 08:26:14;;;;;;;5.43;3.90;;;;;;;22.31;66.47;101438.41;4978457;28;102451;-67
2022/07/20 08:28:44;;;;;;;3.72;3.42;;;;;;;22.34;65.75;101438.91;4976465;28;104815;-67
2022/07/20 08:31:10;;;;;;;3.47;3.17;;;;;;;22.36;64.19;101437.44;4975246;28;102436;-67
2022/07/20 08:33:38;;;;;;;4.60;3.50;;;;;;;22.38;64.90;101446.22;4975880;28;102127;-67
2022/07/20 08:36:06;;;;;;;4.20;3.88;;;;;;;22.37;65.30;101435.47;4977417;28;102632;-66
2022/07/20 08:38:32;;;;;;;3.72;3.30;;;;;;;22.36;66.13;101431.06;4975791;28;103914;-67
2022/07/20 08:40:59;;;;;;;3.60;3.30;;;;;;;22.37;64.73;101427.97;4976364;28;102264;-67
2022/07/20 08:43:26;;;;;;;4.00;3.60;;;;;;;22.39;65.02;101424.84;4972949;28;102218;-67
2022/07/20 08:45:52;;;;;;;4.20;3.80;;;;;;;22.37;65.54;101424.38;4977699;28;102643;-67
2022/07/20 08:48:22;;;;;;;3.80;3.35;;;;;;;22.36;65.03;101418.03;4975760;28;104247;-67
2022/07/20 08:50:50;;;;;;;4.28;3.45;;;;;;;22.38;64.73;101417.69;4975731;28;101917;-67
2022/07/20 08:53:18;;;;;;;4.50;3.40;;;;;;;22.37;65.45;101416.06;4975268;28;102264;-67
2022/07/20 08:55:45;;;;;;;3.70;3.37;;;;;;;22.36;66.55;101408.88;4976827;28;102127;-68
2022/07/20 08:58:12;;;;;;;3.93;3.40;;;;;;;22.36;66.02;101400.56;4975474;28;103965;-67
2022/07/20 09:00:39;;;;;;;4.97;3.90;;;;;;;22.36;65.61;101404.16;4972362;28;102495;-67
2022/07/20 09:03:07;;;;;;;3.72;3.33;;;;;;;22.37;65.22;101404.97;4967947;28;102443;-67
2022/07/20 09:05:38;;;;;;;4.05;3.65;;;;;;;22.34;66.58;101400.91;4973370;28;102248;-67
2022/07/20 09:08:11;;;;;;;4.00;3.60;;;;;;;22.33;67.10;101398.47;4971166;28;103718;-67
2022/07/20 09:10:41;;;;;;;4.70;4.20;;;;;;;22.31;66.93;101393.25;4972735;28;102162;-66
2022/07/20 09:13:12;;;;;;;5.57;3.60;;;;;;;22.33;65.72;101393.75;4975099;28;102275;-67
2022/07/20 09:15:42;;;;;;;4.57;3.72;;;;;;;22.34;66.57;101383.47;4971148;28;102148;-67
2022/07/20 09:18:13;;;;;;;4.45;3.65;;;;;;;22.33;67.12;101381.84;4966674;28;103966;-67
2022/07/20 09:20:42;;;;;;;3.97;3.58;;;;;;;22.33;66.11;101376.28;4969525;28;102131;-68
2022/07/20 09:23:13;;;;;;;5.75;3.55;;;;;;;22.35;65.15;101377.56;4970463;28;102032;-67
2022/07/20 09:25:54;;;;;;;3.70;3.30;;;;;;;22.37;65.53;101371.69;4973236;28;103058;-67
2022/07/20 09:28:22;;;;;;;3.85;3.42;;;;;;;22.36;66.79;101372.81;4968031;28;104680;-67
2022/07/20 09:30:53;;;;;;;3.70;3.30;;;;;;;22.31;66.84;101369.09;4976525;28;101912;-67
2022/07/20 09:33:27;;;;;;;4.03;3.67;;;;;;;22.31;67.06;101368.28;4976112;28;102367;-67
2022/07/20 09:35:54;;;;;;;4.10;3.75;;;;;;;22.30;66.96;101366.69;4967599;28;102154;-67
2022/07/20 09:38:31;;;;;;;4.22;3.83;;;;;;;22.30;66.60;101356.38;4972779;28;104203;-67
2022/07/20 09:40:57;;;;;;;3.92;3.53;;;;;;;22.30;66.82;101364.72;4963686;28;102206;-67
2022/07/20 09:43:26;;;;;;;4.88;3.58;;;;;;;22.31;66.73;101358.00;4975080;28;102062;-67
2022/07/20 09:45:54;;;;;;;7.38;3.75;;;;;;;22.28;67.01;101350.34;4971954;28;102072;-67
2022/07/20 09:48:24;;;;;;;3.65;3.35;;;;;;;22.26;67.42;101347.13;4973092;28;104118;-67
2022/07/20 09:50:51;;;;;;;3.92;3.63;;;;;;;22.29;66.38;101346.47;4976435;28;102086;-68
2022/07/20 09:53:17;;;;;;;4.18;3.67;;;;;;;22.35;64.60;101351.78;4977378;28;102267;-67
2022/07/20 09:55:48;;;;;;;3.85;3.47;;;;;;;22.37;65.07;101343.97;4975493;28;102344;-67
2022/07/20 09:58:17;;;;;;;3.80;3.50;;;;;;;22.35;65.90;101343.47;4969656;28;104398;-66
2022/07/20 10:00:44;;;;;;;3.85;3.50;;;;;;;22.34;66.15;101341.88;4967700;28;102403;-68
2022/07/20 10:03:14;;;;;;;3.50;3.20;;;;;;;22.29;66.70;101338.13;4969598;28;102180;-67
2022/07/20 10:05:43;;;;;;;3.92;3.30;;;;;;;22.31;65.82;101329.47;4966001;28;102298;-67
2022/07/20 10:08:09;;;;;;;3.33;3.08;;;;;;;22.32;66.34;101331.09;4977569;28;104041;-67
2022/07/20 10:10:36;;;;;;;3.97;3.58;;;;;;;22.31;66.76;101329.47;4979903;28;102245;-67
2022/07/20 10:13:05;;;;;;;3.83;3.53;;;;;;;22.28;66.90;101322.63;4972688;28;102245;-67
2022/07/20 10:15:55;;;;;;;3.92;3.55;;;;;;;22.28;67.04;101324.59;4965218;28;102210;-67
2022/07/20 10:18:23;;;;;;;4.00;3.60;;;;;;;22.28;67.08;101325.41;4961068;28;104154;-67
2022/07/20 10:20:49;;;;;;;4.10;3.72;;;;;;;22.27;67.30;101315.47;4973049;28;101879;-67
2022/07/20 10:23:37;;;;;;;3.92;3.55;;;;;;;22.25;67.33;101309.47;4972594;28;102116;-67
2022/07/20 10:26:07;;;;;;;3.90;3.60;;;;;;;22.25;67.42;101308.63;4979573;28;102150;-67
2022/07/20 10:28:37;;;;;;;3.67;3.38;;;;;;;22.24;67.46;101320.88;4976396;28;103936;-67
2022/07/20 10:31:08;;;;;;;3.40;3.10;;;;;;;22.23;67.35;101306.19;4979160;28;102462;-66
2022/07/20 10:33:37;;;;;;;3.50;3.20;;;;;;;22.24;67.41;101304.25;4968716;28;102357;-67
2022/07/20 10:38:57;;;;;;;4.10;3.70;;;;;;;22.22;67.91;101287.16;4972010;28;103901;-66
2022/07/20 10:41:36;;;;;;;4.55;3.45;;;;;;;22.21;67.47;101279.94;4978963;28;102185;-66
2022/07/20 10:44:32;;;;;;;3.90;3.60;;;;;;;22.19;67.77;101277.53;4974231;28;102155;-67
2022/07/20 10:46:58;;;;;;;4.22;3.38;;;;;;;22.20;67.94;101268.06;4963851;28;102344;-67
2022/07/20 10:50:00;;;;;;;3.63;3.33;;;;;;;22.19;67.84;101272.00;4972699;28;103917;-67
2022/07/20 10:52:33;;;;;;;4.63;3.95;;;;;;;22.20;67.71;101267.25;4969609;28;102264;-67
2022/07/20 10:55:00;;;;;;;4.15;3.70;;;;;;;22.17;67.77;101262.38;4978375;28;102441;-66
2022/07/20 10:57:28;;;;;;;3.72;3.42;;;;;;;22.19;67.98;101260.91;4978678;28;102277;-65
2022/07/20 11:00:06;;;;;;;3.42;3.17;;;;;;;22.18;67.93;101253.75;4970470;28;104006;-66
2022/07/20 11:02:34;;;;;;;3.83;3.53;;;;;;;22.19;67.99;101249.00;4969822;28;103379;-65
2022/07/20 11:05:01;;;;;;;3.92;3.30;;;;;;;22.18;67.70;101245.41;4973315;28;103151;-66
2022/07/20 11:07:31;;;;;;;4.35;3.72;;;;;;;22.19;67.67;101241.50;4977542;28;102676;-67
2022/07/20 11:09:59;;;;;;;3.45;3.15;;;;;;;22.19;67.76;101249.00;4973448;28;104077;-67
2022/07/20 11:12:27;;;;;;;3.90;3.50;;;;;;;22.19;67.90;101244.25;4976069;28;102620;-66
2022/07/20 11:14:55;;;;;;;4.05;3.65;;;;;;;22.18;67.81;101242.66;4971135;28;102035;-67
2022/07/20 11:17:23;;;;;;;4.38;3.97;;;;;;;22.17;67.93;101245.75;4964756;28;102090;-67
2022/07/20 11:19:53;;;;;;;3.75;3.30;;;;;;;22.18;67.74;101252.91;4976911;28;103873;-67
2022/07/20 11:22:21;;;;;;;4.07;3.67;;;;;;;22.18;67.90;101233.50;4976367;28;102128;-67
2022/07/20 11:24:54;;;;;;;3.63;3.28;;;;;;;22.16;68.00;101233.84;4970520;28;102182;-67
2022/07/20 11:27:21;;;;;;;3.83;3.53;;;;;;;22.16;67.97;101239.38;4977884;28;102329;-67